Tim S. Dool — VGPY — position and weather

sailwx.info

Track history (hours):
 
Tides and Currents Weather Stations Pressure Air Temp Water Temp Dewpoint Dewpoint Depression Visibility Wind Speed Wind Dir Waves Ship Positions

Tim S. Dool

Last reported at 2016-May-06 23:33 UTC. Time now 2016-May-07 00:25 UTC.
Position N 43°29' W 079°37'.

Length 223 m; draft 6.2 m.

Type: Cargo ship. MMSI: 316001696.

Date/timePositionNaut miles runAvg speedWind from/ knotsBaromVisibWave heightAir tempDewpointWater temp
2016-May-06 23:33N 43°29' W 079°37'0 0.0
2016-May-06 22:33N 43°29' W 079°37'0 0.0
2016-May-06 21:33N 43°29' W 079°37'0 0.0
2016-May-06 20:32N 43°29' W 079°37'0 0.0
2016-May-06 19:33N 43°29' W 079°37'0 0.0
2016-May-06 18:33N 43°29' W 079°37'0 0.0
2016-May-06 17:32N 43°29' W 079°37'0 0.0
2016-May-06 16:33N 43°29' W 079°37'0 0.0
2016-May-06 15:06N 43°29' W 079°37'0 0.0
2016-May-06 14:25N 43°29' W 079°37'0 0.0
2016-May-06 13:33N 43°29' W 079°37'0 0.0
2016-May-06 12:33N 43°29' W 079°37'0 0.0
2016-May-06 11:33N 43°29' W 079°37'0 0.0
2016-May-06 10:33N 43°29' W 079°37'0 0.0
2016-May-06 09:33N 43°29' W 079°37'0 0.0
2016-May-06 08:32N 43°29' W 079°37'0 0.0
2016-May-06 07:33N 43°29' W 079°37'0 0.0
2016-May-06 06:33N 43°29' W 079°37'0 0.0
2016-May-06 05:29N 43°29' W 079°37'0 0.0
2016-May-06 04:33N 43°29' W 079°37'0 0.0
2016-May-06 03:33N 43°29' W 079°37'0 0.0
2016-May-06 02:33N 43°29' W 079°37'0 0.0
2016-May-06 01:33N 43°29' W 079°37'0 0.0
2016-May-06 00:33N 43°29' W 079°37'0 0.0
2016-May-05 23:33N 43°29' W 079°37'0 0.0
2016-May-05 22:33N 43°29' W 079°37'0 0.0
2016-May-05 21:33N 43°29' W 079°37'0 0.0
2016-May-05 20:29N 43°29' W 079°37'0 0.0
2016-May-05 19:32N 43°29' W 079°37'3 0.7
2016-May-05 15:33N 43°27' W 079°34'6 6.1
2016-May-05 14:33N 43°21' W 079°34'2 2.1
2016-May-05 13:34N 43°21' W 079°31'3 4.8
2016-May-05 13:00N 43°18' W 079°30'4 8.2 030 / 111005.0 5.4 0.511.0
2016-May-05 12:33N 43°20' W 079°34'10 7.3
2016-May-05 11:12N 43°18' W 079°48'2 0.2
2016-May-05 01:10N 43°16' W 079°48'16018.6
2016-May-04 16:33N 44°11' W 076°19'0 0.0
2016-May-04 15:33N 44°11' W 076°19'0 0.0
2016-May-04 14:33N 44°11' W 076°19'0 0.0
2016-May-04 13:33N 44°11' W 076°19'0 0.0
2016-May-04 12:34N 44°11' W 076°19'0 0.0
2016-May-04 11:34N 44°11' W 076°19'0 0.0
2016-May-04 10:34N 44°11' W 076°19'0 0.0
2016-May-04 09:34N 44°11' W 076°19'0 0.0
2016-May-04 08:33N 44°11' W 076°19'0 0.0
2016-May-04 07:34N 44°11' W 076°19'0 0.0
2016-May-04 06:33N 44°11' W 076°19'0 0.0
2016-May-04 05:33N 44°11' W 076°19'0 0.0
2016-May-04 04:33N 44°11' W 076°19'0 0.0
2016-May-04 03:34N 44°11' W 076°19'111 5.5
2016-May-03 07:31N 45°14' W 074°11'7 7.3
2016-May-03 06:33N 45°14' W 074°01'6 6.0
2016-May-03 05:34N 45°18' W 073°56'1 0.8
2016-May-03 04:33N 45°19' W 073°55'2 1.5
2016-May-03 03:33N 45°20' W 073°54'8 8.4
2016-May-03 02:33N 45°24' W 073°44'5 5.4
2016-May-03 01:33N 45°24' W 073°36'5 2.3
2016-May-02 23:24N 45°27' W 073°30'5 2.3
2016-May-02 21:13N 45°32' W 073°32'4 6.5
2016-May-02 20:33N 45°36' W 073°30'8 8.2
2016-May-02 19:33N 45°44' W 073°26'9 9.3
2016-May-02 18:33N 45°51' W 073°17'9 9.3
2016-May-02 17:33N 45°59' W 073°11'8 7.5
2016-May-02 16:33N 46°04' W 073°03'1310.0
2016-May-02 15:14N 46°13' W 072°49'  
2016-Apr-27 10:14N 46°16' W 072°39'812.2
2016-Apr-27 09:33N 46°12' W 072°50'1312.6
2016-Apr-27 08:33N 46°04' W 073°03'1211.8
2016-Apr-27 07:33N 45°54' W 073°13'1414.0
2016-Apr-27 06:33N 45°43' W 073°26'1111.1
2016-Apr-27 05:34N 45°33' W 073°31'9 2.6
2016-Apr-27 02:13N 45°24' W 073°34'3 3.1
2016-Apr-27 01:20N 45°24' W 073°38'4 5.5
2016-Apr-27 00:33N 45°24' W 073°44'9 9.5
2016-Apr-26 23:33N 45°19' W 073°55'  
Track history (hours):
 
Tides and Currents Weather Stations Pressure Air Temp Water Temp Dewpoint Dewpoint Depression Visibility Wind Speed Wind Dir Waves Ship Positions

Tim S. Dool

Last reported at 2016-May-06 23:33 UTC. Time now 2016-May-07 00:25 UTC.
Position N 43°29' W 079°37'.

Length 223 m; draft 6.2 m.

Type: Cargo ship. MMSI: 316001696.

Date/timePositionNaut miles runAvg speedWind from/ knotsBaromVisibWave heightAir tempDewpointWater temp
2016-May-06 23:33N 43°29' W 079°37'0 0.0
2016-May-06 22:33N 43°29' W 079°37'0 0.0
2016-May-06 21:33N 43°29' W 079°37'0 0.0
2016-May-06 20:32N 43°29' W 079°37'0 0.0
2016-May-06 19:33N 43°29' W 079°37'0 0.0
2016-May-06 18:33N 43°29' W 079°37'0 0.0
2016-May-06 17:32N 43°29' W 079°37'0 0.0
2016-May-06 16:33N 43°29' W 079°37'0 0.0
2016-May-06 15:06N 43°29' W 079°37'0 0.0
2016-May-06 14:25N 43°29' W 079°37'0 0.0
2016-May-06 13:33N 43°29' W 079°37'0 0.0
2016-May-06 12:33N 43°29' W 079°37'0 0.0
2016-May-06 11:33N 43°29' W 079°37'0 0.0
2016-May-06 10:33N 43°29' W 079°37'0 0.0
2016-May-06 09:33N 43°29' W 079°37'0 0.0
2016-May-06 08:32N 43°29' W 079°37'0 0.0
2016-May-06 07:33N 43°29' W 079°37'0 0.0
2016-May-06 06:33N 43°29' W 079°37'0 0.0
2016-May-06 05:29N 43°29' W 079°37'0 0.0
2016-May-06 04:33N 43°29' W 079°37'0 0.0
2016-May-06 03:33N 43°29' W 079°37'0 0.0
2016-May-06 02:33N 43°29' W 079°37'0 0.0
2016-May-06 01:33N 43°29' W 079°37'0 0.0
2016-May-06 00:33N 43°29' W 079°37'0 0.0
2016-May-05 23:33N 43°29' W 079°37'0 0.0
2016-May-05 22:33N 43°29' W 079°37'0 0.0
2016-May-05 21:33N 43°29' W 079°37'0 0.0
2016-May-05 20:29N 43°29' W 079°37'0 0.0
2016-May-05 19:32N 43°29' W 079°37'3 0.7
2016-May-05 15:33N 43°27' W 079°34'6 6.1
2016-May-05 14:33N 43°21' W 079°34'2 2.1
2016-May-05 13:34N 43°21' W 079°31'3 4.8
2016-May-05 13:00N 43°18' W 079°30'4 8.2 030 / 111005.0 5.4 0.511.0
2016-May-05 12:33N 43°20' W 079°34'10 7.3
2016-May-05 11:12N 43°18' W 079°48'2 0.2
2016-May-05 01:10N 43°16' W 079°48'16018.6
2016-May-04 16:33N 44°11' W 076°19'0 0.0
2016-May-04 15:33N 44°11' W 076°19'0 0.0
2016-May-04 14:33N 44°11' W 076°19'0 0.0
2016-May-04 13:33N 44°11' W 076°19'0 0.0
2016-May-04 12:34N 44°11' W 076°19'0 0.0
2016-May-04 11:34N 44°11' W 076°19'0 0.0
2016-May-04 10:34N 44°11' W 076°19'0 0.0
2016-May-04 09:34N 44°11' W 076°19'0 0.0
2016-May-04 08:33N 44°11' W 076°19'0 0.0
2016-May-04 07:34N 44°11' W 076°19'0 0.0
2016-May-04 06:33N 44°11' W 076°19'0 0.0
2016-May-04 05:33N 44°11' W 076°19'0 0.0
2016-May-04 04:33N 44°11' W 076°19'0 0.0
2016-May-04 03:34N 44°11' W 076°19'111 5.5
2016-May-03 07:31N 45°14' W 074°11'7 7.3
2016-May-03 06:33N 45°14' W 074°01'6 6.0
2016-May-03 05:34N 45°18' W 073°56'1 0.8
2016-May-03 04:33N 45°19' W 073°55'2 1.5
2016-May-03 03:33N 45°20' W 073°54'8 8.4
2016-May-03 02:33N 45°24' W 073°44'5 5.4
2016-May-03 01:33N 45°24' W 073°36'5 2.3
2016-May-02 23:24N 45°27' W 073°30'5 2.3
2016-May-02 21:13N 45°32' W 073°32'4 6.5
2016-May-02 20:33N 45°36' W 073°30'8 8.2
2016-May-02 19:33N 45°44' W 073°26'9 9.3
2016-May-02 18:33N 45°51' W 073°17'9 9.3
2016-May-02 17:33N 45°59' W 073°11'8 7.5
2016-May-02 16:33N 46°04' W 073°03'1310.0
2016-May-02 15:14N 46°13' W 072°49'  
2016-Apr-27 10:14N 46°16' W 072°39'812.2
2016-Apr-27 09:33N 46°12' W 072°50'1312.6
2016-Apr-27 08:33N 46°04' W 073°03'1211.8
2016-Apr-27 07:33N 45°54' W 073°13'1414.0
2016-Apr-27 06:33N 45°43' W 073°26'1111.1
2016-Apr-27 05:34N 45°33' W 073°31'9 2.6
2016-Apr-27 02:13N 45°24' W 073°34'3 3.1
2016-Apr-27 01:20N 45°24' W 073°38'4 5.5
2016-Apr-27 00:33N 45°24' W 073°44'9 9.5
2016-Apr-26 23:33N 45°19' W 073°55'  

Dump ship's entire track history